Time;durP1;ratioP1;P1;durP2;ratioP2;P2;SDS_P1;SDS_P2;PMS_P1;PMS_P2;Temp;Humidity;BMP_temperature;BMP_pressure;BME280_temperature;BME280_humidity;BME280_pressure;Samples;Min_cycle;Max_cycle;Signal;HPM_P1;HPM_P2
2023/04/15 00:00:08;;;;;;;15.48;10.70;;;10.80;99.90;;;;;;2603673;54;20027;31
2023/04/15 00:02:51;;;;;;;13.88;10.52;;;10.80;99.90;;;;;;2622338;46;20056;31
2023/04/15 00:05:30;;;;;;;15.70;10.97;;;10.80;99.90;;;;;;2701250;39;20485;31
2023/04/15 00:08:11;;;;;;;14.45;11.50;;;10.80;99.90;;;;;;2603896;54;20026;31
2023/04/15 00:10:45;;;;;;;15.40;11.80;;;10.90;99.90;;;;;;2603956;54;20132;31
2023/04/15 00:13:21;;;;;;;12.23;10.52;;;10.90;99.90;;;;;;2603018;54;20026;31
2023/04/15 00:15:58;;;;;;;19.70;11.82;;;10.90;99.90;;;;;;2603825;54;20085;31
2023/04/15 00:18:33;;;;;;;14.05;11.93;;;10.80;99.90;;;;;;2603635;54;20038;31
2023/04/15 00:21:10;;;;;;;15.10;11.02;;;10.90;99.90;;;;;;2603615;54;20072;31
2023/04/15 00:23:52;;;;;;;14.02;10.95;;;10.90;99.90;;;;;;2603598;54;20023;31
2023/04/15 00:26:30;;;;;;;15.75;10.73;;;10.80;99.90;;;;;;2603541;54;20053;31
2023/04/15 00:29:07;;;;;;;16.30;10.63;;;10.80;99.90;;;;;;2720663;39;20674;31
2023/04/15 00:31:45;;;;;;;15.63;10.98;;;10.80;99.90;;;;;;2603056;54;20793;31
2023/04/15 00:34:22;;;;;;;13.45;10.30;;;10.80;99.90;;;;;;2616663;46;20053;31
2023/04/15 00:36:57;;;;;;;14.13;10.80;;;10.80;99.90;;;;;;2773502;31;21594;31
2023/04/15 00:39:39;;;;;;;14.82;10.73;;;10.80;99.90;;;;;;2702145;39;20570;31
2023/04/15 00:42:15;;;;;;;12.70;10.52;;;10.80;99.90;;;;;;2621802;46;20045;31
2023/04/15 00:44:53;;;;;;;14.65;11.15;;;10.80;99.90;;;;;;2603431;54;20589;31
2023/04/15 00:47:30;;;;;;;16.38;11.98;;;10.80;99.90;;;;;;2603656;54;20049;31
2023/04/15 00:50:09;;;;;;;14.25;10.88;;;10.80;99.90;;;;;;2603429;54;20095;31
2023/04/15 00:52:45;;;;;;;15.13;10.77;;;10.70;99.90;;;;;;2603499;54;20053;31
2023/04/15 00:55:26;;;;;;;15.80;10.60;;;10.70;99.90;;;;;;2602640;54;20723;31
2023/04/15 00:58:03;;;;;;;12.90;10.10;;;10.70;99.90;;;;;;2610417;46;20085;31
2023/04/15 01:00:40;;;;;;;14.27;9.90;;;10.80;99.90;;;;;;2602676;54;20651;31
2023/04/15 01:03:17;;;;;;;16.40;11.90;;;10.70;99.90;;;;;;2621615;46;20907;31
2023/04/15 01:05:56;;;;;;;15.65;11.50;;;10.70;99.90;;;;;;2603609;54;20847;31
2023/04/15 01:08:33;;;;;;;16.80;11.30;;;10.70;99.90;;;;;;2603470;54;20111;31
2023/04/15 01:11:12;;;;;;;15.65;10.48;;;10.70;99.90;;;;;;2702049;39;20851;31
2023/04/15 01:13:47;;;;;;;15.73;11.77;;;10.70;99.90;;;;;;2701288;39;20634;31
2023/04/15 01:16:23;;;;;;;13.95;11.25;;;10.70;99.90;;;;;;2602673;54;20022;31
2023/04/15 01:19:02;;;;;;;17.23;11.13;;;10.70;99.90;;;;;;2602757;54;20038;31
2023/04/15 01:21:41;;;;;;;14.55;10.68;;;10.70;99.90;;;;;;2700939;39;20512;31
2023/04/15 01:24:20;;;;;;;15.87;10.73;;;10.70;99.90;;;;;;2602581;54;20799;31
2023/04/15 01:27:02;;;;;;;15.27;10.82;;;10.70;99.90;;;;;;2619669;46;20034;31
2023/04/15 01:29:40;;;;;;;15.98;10.85;;;10.70;99.90;;;;;;2602335;54;20076;31
2023/04/15 01:32:16;;;;;;;13.73;10.30;;;10.60;99.90;;;;;;2615983;46;20946;31
2023/04/15 01:34:51;;;;;;;14.17;10.20;;;10.70;99.90;;;;;;2603349;54;21728;31
2023/04/15 01:37:32;;;;;;;14.93;11.02;;;10.70;99.90;;;;;;2603382;54;20604;31
2023/04/15 01:40:12;;;;;;;14.60;10.55;;;10.70;99.90;;;;;;2603500;54;20046;31
2023/04/15 01:42:52;;;;;;;13.82;10.68;;;10.70;99.90;;;;;;2621770;46;20581;31
2023/04/15 01:45:27;;;;;;;16.27;11.88;;;10.70;99.90;;;;;;2621374;46;20029;31
2023/04/15 01:48:03;;;;;;;15.02;11.38;;;10.70;99.90;;;;;;2603303;54;20954;31
2023/04/15 01:50:41;;;;;;;15.77;10.90;;;10.70;99.90;;;;;;2603262;54;20022;31
2023/04/15 01:53:16;;;;;;;17.85;10.88;;;10.70;99.90;;;;;;2603195;54;20038;31
2023/04/15 01:55:55;;;;;;;16.90;10.95;;;10.70;99.90;;;;;;2603303;54;20770;31
2023/04/15 01:58:36;;;;;;;17.27;11.40;;;10.70;99.90;;;;;;2603302;54;20030;31
2023/04/15 02:01:13;;;;;;;16.25;11.02;;;10.70;99.90;;;;;;2603459;54;20032;31
2023/04/15 02:03:50;;;;;;;13.90;11.18;;;10.70;99.90;;;;;;2603223;54;20879;31
2023/04/15 02:06:27;;;;;;;14.00;10.85;;;10.70;99.90;;;;;;2602650;54;20875;31
2023/04/15 02:09:05;;;;;;;14.82;11.25;;;10.70;99.90;;;;;;2603328;54;20834;31
2023/04/15 02:11:41;;;;;;;15.00;11.02;;;10.70;99.90;;;;;;2603116;54;20144;31
2023/04/15 02:14:21;;;;;;;16.45;10.75;;;10.70;99.90;;;;;;2603156;54;20053;31
2023/04/15 02:17:06;;;;;;;15.30;12.30;;;10.70;99.90;;;;;;2621649;46;20880;31
2023/04/15 02:19:43;;;;;;;15.15;11.00;;;10.70;99.90;;;;;;2603135;54;20729;31
2023/04/15 02:22:19;;;;;;;16.10;11.33;;;10.70;99.90;;;;;;2621312;46;20038;31
2023/04/15 02:24:55;;;;;;;16.38;12.00;;;10.70;99.90;;;;;;2602814;54;20101;31
2023/04/15 02:27:31;;;;;;;13.85;11.77;;;10.70;99.90;;;;;;2621475;46;20675;31
2023/04/15 02:30:12;;;;;;;13.93;11.65;;;10.70;99.90;;;;;;2602754;54;20098;31
2023/04/15 02:32:47;;;;;;;18.45;12.43;;;10.70;99.90;;;;;;2603336;54;20824;31
2023/04/15 02:35:24;;;;;;;13.60;12.10;;;10.60;99.90;;;;;;2603151;54;20861;31
2023/04/15 02:38:02;;;;;;;17.95;12.15;;;10.60;99.90;;;;;;2603309;54;20119;31
2023/04/15 02:40:37;;;;;;;15.30;10.88;;;10.60;99.90;;;;;;2613823;46;20029;31
2023/04/15 02:43:16;;;;;;;18.48;12.80;;;10.50;99.90;;;;;;2602623;54;20880;31
2023/04/15 02:46:01;;;;;;;16.75;12.43;;;10.60;99.90;;;;;;2603362;54;20851;31
2023/04/15 02:48:41;;;;;;;14.53;11.73;;;10.50;99.90;;;;;;2602999;54;20050;31
2023/04/15 02:51:19;;;;;;;15.77;12.52;;;10.50;99.90;;;;;;2603022;54;19934;31
2023/04/15 02:53:55;;;;;;;20.97;13.27;;;10.40;99.90;;;;;;2603347;54;20027;31
2023/04/15 02:56:32;;;;;;;14.97;12.00;;;10.40;99.90;;;;;;2603368;54;19935;31
2023/04/15 02:59:08;;;;;;;20.23;13.20;;;10.40;99.90;;;;;;2602964;54;20030;31
2023/04/15 03:01:48;;;;;;;16.75;13.15;;;10.40;99.90;;;;;;2603211;54;20929;31
2023/04/15 03:04:24;;;;;;;16.88;13.57;;;10.40;99.90;;;;;;2603194;54;20033;31
2023/04/15 03:06:59;;;;;;;;;;;10.30;99.90;;;;;;2603230;54;20023;31
2023/04/15 03:09:39;;;;;;;18.27;14.68;;;10.30;99.90;;;;;;2603288;54;19934;31
2023/04/15 03:12:15;;;;;;;21.77;13.43;;;10.30;99.90;;;;;;2602469;54;20923;31
2023/04/15 03:14:52;;;;;;;20.75;13.68;;;10.20;99.90;;;;;;2602937;54;20569;31
2023/04/15 03:17:36;;;;;;;18.50;14.20;;;10.20;99.90;;;;;;2602996;54;20152;31
2023/04/15 03:22:46;;;;;;;17.27;14.00;;;10.10;99.90;;;;;;2602779;54;20085;31
2023/04/15 03:25:23;;;;;;;16.77;13.60;;;10.10;99.90;;;;;;2602846;54;20122;31
2023/04/15 03:28:00;;;;;;;16.67;12.95;;;10.10;99.90;;;;;;2602813;54;20822;31
2023/04/15 03:30:37;;;;;;;19.20;14.50;;;10.00;99.90;;;;;;2602958;54;20034;31
2023/04/15 03:33:16;;;;;;;16.75;12.73;;;10.00;99.90;;;;;;2602276;54;20042;31
2023/04/15 03:35:52;;;;;;;18.13;14.07;;;10.00;99.90;;;;;;2602181;54;21467;31
2023/04/15 03:38:28;;;;;;;18.67;14.68;;;10.00;99.90;;;;;;2602079;54;20030;31
2023/04/15 03:41:04;;;;;;;20.70;15.27;;;9.90;99.90;;;;;;2602657;54;20791;31
2023/04/15 03:43:40;;;;;;;19.73;15.97;;;9.90;99.90;;;;;;2603661;54;20034;31
2023/04/15 03:46:16;;;;;;;;;;;9.90;99.90;;;;;;2603382;54;20061;31
2023/04/15 03:48:57;;;;;;;19.58;16.02;;;9.80;99.90;;;;;;2603810;54;19942;31
2023/04/15 03:51:33;;;;;;;25.65;17.42;;;9.80;99.90;;;;;;2603882;54;20065;31
2023/04/15 03:54:11;;;;;;;24.37;17.17;;;9.70;99.90;;;;;;2603671;54;20026;31
2023/04/15 03:56:48;;;;;;;21.60;17.40;;;9.70;99.90;;;;;;2603883;54;20866;31
2023/04/15 03:59:24;;;;;;;;;;;9.60;99.90;;;;;;2622437;46;20774;31
2023/04/15 04:01:59;;;;;;;23.15;15.30;;;9.60;99.90;;;;;;2622082;46;19935;31
2023/04/15 04:04:39;;;;;;;23.58;16.80;;;9.50;99.90;;;;;;2622267;46;20031;31
2023/04/15 04:07:18;;;;;;;19.90;15.20;;;9.50;99.90;;;;;;2622244;46;20026;31
2023/04/15 04:09:55;;;;;;;18.60;14.80;;;9.50;99.90;;;;;;2603504;54;20102;31
2023/04/15 04:12:30;;;;;;;19.45;15.10;;;9.40;99.90;;;;;;2603921;54;20073;31
2023/04/15 04:15:08;;;;;;;21.45;16.65;;;9.40;99.90;;;;;;2603672;54;20026;31
2023/04/15 04:17:46;;;;;;;19.65;15.70;;;9.30;99.90;;;;;;2602922;54;20108;31
2023/04/15 04:20:30;;;;;;;19.75;14.85;;;9.30;99.90;;;;;;2603649;54;20061;31
2023/04/15 04:23:07;;;;;;;20.65;15.00;;;9.30;99.90;;;;;;2603672;54;20022;31
2023/04/15 04:25:44;;;;;;;20.35;15.65;;;9.20;99.90;;;;;;2602871;54;20060;31
2023/04/15 04:28:23;;;;;;;22.13;16.15;;;9.20;99.90;;;;;;2603735;54;20056;31
2023/04/15 04:30:58;;;;;;;17.10;13.83;;;9.20;99.90;;;;;;2609830;46;20037;31
2023/04/15 04:33:34;;;;;;;;;;;9.20;99.90;;;;;;2603214;54;21078;31
2023/04/15 04:36:15;;;;;;;15.88;11.52;;;9.10;99.90;;;;;;2603883;54;19935;31
2023/04/15 04:38:51;;;;;;;17.38;11.43;;;9.10;99.90;;;;;;2622545;46;20100;31
2023/04/15 04:41:31;;;;;;;21.15;13.40;;;9.10;99.90;;;;;;2602832;54;20029;31
2023/04/15 04:44:06;;;;;;;20.13;14.88;;;9.10;99.90;;;;;;2621959;46;20034;31
2023/04/15 04:46:43;;;;;;;22.17;15.95;;;9.10;99.90;;;;;;2773565;31;20467;31
2023/04/15 04:49:22;;;;;;;23.60;16.25;;;9.10;99.90;;;;;;2603745;54;20226;31
2023/04/15 04:52:02;;;;;;;22.90;14.30;;;9.00;99.90;;;;;;2701826;39;20497;31
2023/04/15 04:54:37;;;;;;;19.50;14.30;;;9.00;99.90;;;;;;2603549;54;20030;31
2023/04/15 04:57:12;;;;;;;17.60;14.02;;;9.00;99.90;;;;;;2603237;54;20108;31
2023/04/15 04:59:49;;;;;;;17.00;12.65;;;9.00;99.90;;;;;;2622140;46;20585;31
2023/04/15 05:02:26;;;;;;;14.90;11.13;;;9.00;99.90;;;;;;2603114;54;20589;31
2023/04/15 05:05:01;;;;;;;13.45;11.10;;;8.90;99.90;;;;;;2603633;54;20027;31
2023/04/15 05:07:38;;;;;;;15.17;11.77;;;8.90;99.90;;;;;;2621927;46;20037;31
2023/04/15 05:10:16;;;;;;;15.77;11.10;;;8.90;99.90;;;;;;2611738;46;20054;31
2023/04/15 05:12:51;;;;;;;7.70;5.53;;;8.90;99.90;;;;;;2616134;46;20031;31
2023/04/15 05:15:26;;;;;;;6.17;4.70;;;8.90;99.90;;;;;;2603782;54;20038;31
2023/04/15 05:18:04;;;;;;;8.15;4.85;;;8.90;99.90;;;;;;2603716;54;21587;31
2023/04/15 05:20:38;;;;;;;7.55;5.57;;;8.90;99.90;;;;;;2622151;46;21594;31
2023/04/15 05:23:17;;;;;;;5.43;4.18;;;8.90;99.90;;;;;;2603783;46;20875;31
2023/04/15 05:25:54;;;;;;;7.28;2.95;;;9.00;99.90;;;;;;2603726;54;20881;31
2023/04/15 05:28:31;;;;;;;3.25;2.30;;;9.00;99.90;;;;;;2603416;54;20038;31
2023/04/15 05:31:09;;;;;;;3.80;2.08;;;9.00;99.90;;;;;;2603413;54;20113;31
2023/04/15 05:33:51;;;;;;;1.85;1.30;;;9.00;99.90;;;;;;2621973;46;20866;31
2023/04/15 05:36:28;;;;;;;1.90;1.50;;;8.90;99.90;;;;;;2603335;54;20026;31
2023/04/15 05:39:07;;;;;;;1.80;1.08;;;8.90;99.90;;;;;;2701065;39;20474;31
2023/04/15 05:41:43;;;;;;;1.25;0.95;;;8.90;99.90;;;;;;2603406;54;20031;31
2023/04/15 05:44:19;;;;;;;1.97;1.10;;;8.90;99.90;;;;;;2621794;46;20136;31
2023/04/15 05:46:54;;;;;;;;;;;8.80;99.90;;;;;;2602821;54;20875;31
2023/04/15 05:49:30;;;;;;;1.63;0.95;;;8.80;99.90;;;;;;2602610;54;20773;31
2023/04/15 05:52:08;;;;;;;2.10;1.45;;;8.80;99.90;;;;;;2602559;54;20039;31
2023/04/15 05:54:49;;;;;;;2.55;1.83;;;8.80;99.90;;;;;;2603616;54;20045;31
2023/04/15 05:57:26;;;;;;;2.33;1.73;;;8.90;99.90;;;;;;2602710;54;20030;31
2023/04/15 06:00:04;;;;;;;4.22;1.83;;;9.00;99.90;;;;;;2602767;54;20038;31
2023/04/15 06:02:44;;;;;;;4.25;2.00;;;9.10;99.90;;;;;;2603692;54;20022;31
2023/04/15 06:05:19;;;;;;;4.13;2.15;;;9.20;99.90;;;;;;2602502;54;20034;31
2023/04/15 06:07:57;;;;;;;3.07;2.10;;;9.30;99.90;;;;;;2602550;54;20022;31
2023/04/15 06:10:37;;;;;;;3.53;1.85;;;9.40;99.90;;;;;;2603241;54;20132;31
2023/04/15 06:13:15;;;;;;;2.25;1.40;;;9.50;99.90;;;;;;2603609;54;20026;31
2023/04/15 06:15:52;;;;;;;2.10;1.15;;;9.70;99.90;;;;;;2603545;54;20051;31
2023/04/15 06:18:28;;;;;;;1.10;0.70;;;9.90;99.90;;;;;;2602967;54;20022;31
2023/04/15 06:21:04;;;;;;;0.88;0.55;;;10.00;99.90;;;;;;2603177;54;20101;31
2023/04/15 06:23:40;;;;;;;0.98;0.50;;;10.00;99.90;;;;;;2616681;46;20034;31
2023/04/15 06:26:18;;;;;;;;;;;10.00;99.90;;;;;;2603381;54;20950;31
2023/04/15 06:28:58;;;;;;;1.40;0.55;;;10.00;99.90;;;;;;2603094;54;20677;31
2023/04/15 06:31:37;;;;;;;0.90;0.50;;;10.00;99.90;;;;;;2603064;54;20033;31
2023/04/15 06:34:15;;;;;;;1.83;0.93;;;10.00;99.90;;;;;;2603240;54;20027;31
2023/04/15 06:37:00;;;;;;;0.80;0.50;;;10.00;99.90;;;;;;2603403;54;20573;31
2023/04/15 06:39:44;;;;;;;1.40;0.50;;;10.00;99.90;;;;;;2603113;54;21003;31
2023/04/15 06:42:55;;;;;;;0.80;0.53;;;10.00;99.90;;;;;;2602567;54;20089;31
2023/04/15 06:45:37;;;;;;;1.15;0.50;;;10.00;99.90;;;;;;2606132;46;20038;31
2023/04/15 06:48:16;;;;;;;1.27;0.53;;;9.90;99.90;;;;;;2602999;54;20027;31
2023/04/15 06:50:54;;;;;;;0.75;0.40;;;9.90;99.90;;;;;;2603044;54;21495;31
2023/04/15 06:53:32;;;;;;;2.25;0.40;;;9.80;99.90;;;;;;2603310;54;20030;31
2023/04/15 06:56:11;;;;;;;2.83;0.40;;;9.80;99.90;;;;;;2621340;47;20120;31
2023/04/15 06:58:52;;;;;;;0.80;0.50;;;9.80;99.90;;;;;;2603027;54;20254;31
2023/04/15 07:01:29;;;;;;;0.70;0.38;;;9.80;99.90;;;;;;2621853;47;20592;31
2023/04/15 07:04:07;;;;;;;0.60;0.40;;;9.80;99.90;;;;;;2621568;47;20097;31
2023/04/15 07:06:46;;;;;;;1.27;0.43;;;9.70;99.90;;;;;;2621948;47;20049;31
2023/04/15 07:09:28;;;;;;;1.90;0.52;;;9.70;99.90;;;;;;2621497;47;20030;31
2023/04/15 07:12:08;;;;;;;1.10;0.50;;;9.60;99.90;;;;;;2603169;54;20034;31
2023/04/15 07:14:49;;;;;;;3.70;1.40;;;9.60;99.90;;;;;;2791079;31;21784;31
2023/04/15 07:17:29;;;;;;;1.50;0.50;;;9.60;99.90;;;;;;2603970;54;20046;31
2023/04/15 07:20:06;;;;;;;0.88;0.63;;;9.70;99.90;;;;;;2621731;46;20047;31
2023/04/15 07:22:44;;;;;;;0.80;0.53;;;9.70;99.90;;;;;;2603587;54;20108;31
2023/04/15 07:25:24;;;;;;;0.32;0.30;;;9.70;99.90;;;;;;2603999;54;20841;31
2023/04/15 07:28:04;;;;;;;0.70;0.60;;;9.60;99.90;;;;;;2603715;54;20027;31
2023/04/15 07:30:48;;;;;;;2.08;0.50;;;9.60;99.90;;;;;;2603774;54;20093;31
2023/04/15 07:33:26;;;;;;;0.70;0.40;;;9.70;99.90;;;;;;2603895;54;20031;31
2023/04/15 07:36:05;;;;;;;1.05;0.50;;;9.70;99.90;;;;;;2603649;54;19941;31
2023/04/15 07:38:41;;;;;;;0.65;0.40;;;9.70;99.90;;;;;;2603856;54;20753;31
2023/04/15 07:41:25;;;;;;;0.40;0.28;;;9.80;99.90;;;;;;2622117;46;20109;31
2023/04/15 07:44:04;;;;;;;1.15;0.50;;;9.90;99.90;;;;;;2603696;54;20908;31
2023/04/15 07:46:45;;;;;;;0.90;0.40;;;9.90;99.90;;;;;;2603591;54;20884;31
2023/04/15 07:49:22;;;;;;;2.55;0.80;;;10.00;99.90;;;;;;2603906;54;20026;31
2023/04/15 07:52:02;;;;;;;1.67;0.50;;;10.10;99.90;;;;;;2603739;54;20064;31
2023/04/15 07:54:40;;;;;;;0.80;0.43;;;10.10;99.90;;;;;;2603937;54;20157;31
2023/04/15 07:57:17;;;;;;;1.20;0.70;;;10.20;99.90;;;;;;2603885;54;20027;31
2023/04/15 07:59:56;;;;;;;2.75;0.50;;;10.20;99.90;;;;;;2603073;54;20091;31
2023/04/15 08:02:36;;;;;;;2.15;0.60;;;10.40;99.90;;;;;;2603507;54;20743;31
2023/04/15 08:05:15;;;;;;;0.85;0.40;;;10.30;99.90;;;;;;2622410;46;20027;31
2023/04/15 08:07:51;;;;;;;0.47;0.27;;;10.40;99.90;;;;;;2604052;54;20034;31
2023/04/15 08:10:28;;;;;;;0.65;0.30;;;10.50;99.90;;;;;;2602899;54;20019;31
2023/04/15 08:13:06;;;;;;;0.65;0.30;;;10.70;99.90;;;;;;2603739;54;20038;31
2023/04/15 08:15:42;;;;;;;0.70;0.30;;;10.80;99.90;;;;;;2602862;54;20031;31
2023/04/15 08:18:19;;;;;;;;;;;10.80;99.90;;;;;;2602975;54;22360;31
2023/04/15 08:20:56;;;;;;;0.73;0.20;;;10.90;99.90;;;;;;2614498;46;19989;31
2023/04/15 08:23:35;;;;;;;1.48;0.35;;;10.90;99.90;;;;;;2603197;54;20056;31
2023/04/15 08:26:11;;;;;;;0.95;0.50;;;11.10;99.90;;;;;;2603691;54;20029;31
2023/04/15 08:28:47;;;;;;;1.95;0.30;;;11.20;99.90;;;;;;2602827;54;22421;31
2023/04/15 08:31:22;;;;;;;;;;;11.40;99.90;;;;;;2603833;54;19994;31
2023/04/15 08:34:03;;;;;;;2.67;0.43;;;11.60;99.90;;;;;;2603339;54;19941;31
2023/04/15 08:36:41;;;;;;;0.65;0.35;;;11.80;99.90;;;;;;2603440;54;20854;31
2023/04/15 08:39:20;;;;;;;1.20;0.50;;;12.00;99.90;;;;;;2603827;54;20030;31
2023/04/15 08:42:00;;;;;;;2.35;0.50;;;12.30;99.90;;;;;;2621761;46;19942;31
2023/04/15 08:44:39;;;;;;;0.93;0.50;;;12.60;99.90;;;;;;2603392;54;20027;31
2023/04/15 08:47:19;;;;;;;1.30;0.30;;;12.90;99.90;;;;;;2602943;54;20766;31
2023/04/15 08:49:58;;;;;;;0.80;0.40;;;13.20;99.90;;;;;;2608937;46;20027;31
2023/04/15 08:52:33;;;;;;;1.10;0.50;;;13.30;99.90;;;;;;2615053;46;22376;31
2023/04/15 08:55:11;;;;;;;1.35;0.40;;;13.40;99.90;;;;;;2602959;54;20030;31
2023/04/15 08:57:49;;;;;;;1.30;0.50;;;13.70;99.90;;;;;;2617741;46;20026;31
2023/04/15 09:00:25;;;;;;;0.88;0.43;;;13.90;99.90;;;;;;2620846;46;20932;31
2023/04/15 09:03:03;;;;;;;3.05;0.40;;;13.90;99.90;;;;;;2602661;54;20038;31
2023/04/15 09:06:07;;;;;;;3.05;0.50;;;14.10;99.90;;;;;;2603462;54;20026;31
2023/04/15 09:08:50;;;;;;;0.98;0.38;;;14.30;99.90;;;;;;2621406;46;20022;31
2023/04/15 09:11:25;;;;;;;1.65;0.30;;;14.30;99.90;;;;;;2621758;46;20064;31
2023/04/15 09:14:03;;;;;;;1.70;0.55;;;14.40;99.90;;;;;;2603090;54;21259;31
2023/04/15 09:16:58;;;;;;;0.90;0.45;;;14.50;99.90;;;;;;2611639;46;20089;31
2023/04/15 09:19:35;;;;;;;1.00;0.40;;;14.30;99.90;;;;;;2603246;54;21414;31
2023/04/15 09:22:12;;;;;;;2.08;0.57;;;14.30;99.90;;;;;;2603396;54;20882;31
2023/04/15 09:24:51;;;;;;;1.65;0.50;;;14.20;99.90;;;;;;2602722;54;21305;31
2023/04/15 09:27:28;;;;;;;0.52;0.30;;;14.40;99.90;;;;;;2603346;54;21644;31
2023/04/15 09:30:06;;;;;;;0.95;0.50;;;14.40;99.90;;;;;;2603323;54;20743;31
2023/04/15 09:32:50;;;;;;;0.75;0.30;;;14.80;99.90;;;;;;2603409;54;20861;31
2023/04/15 09:35:27;;;;;;;0.75;0.40;;;15.00;99.90;;;;;;2603482;54;20030;31
2023/04/15 09:38:08;;;;;;;0.73;0.38;;;15.10;99.90;;;;;;2603536;54;20057;31
2023/04/15 09:40:47;;;;;;;2.30;0.43;;;15.30;99.90;;;;;;2701015;39;20414;31
2023/04/15 09:43:24;;;;;;;2.88;0.77;;;15.40;99.90;;;;;;2603312;54;20049;31
2023/04/15 09:46:04;;;;;;;0.90;0.40;;;15.30;99.90;;;;;;2621710;46;20034;31
2023/04/15 09:48:41;;;;;;;2.45;0.30;;;15.30;99.90;;;;;;2603404;54;20845;31
2023/04/15 09:51:20;;;;;;;0.63;0.25;;;15.60;99.90;;;;;;2603346;54;20891;31
2023/04/15 09:53:57;;;;;;;1.20;0.30;;;15.60;99.90;;;;;;2603403;54;20120;31
2023/04/15 09:56:41;;;;;;;2.50;0.30;;;15.60;99.90;;;;;;2701976;39;21062;31
2023/04/15 09:59:18;;;;;;;0.30;0.20;;;15.60;99.90;;;;;;2603258;54;20026;31
2023/04/15 10:01:55;;;;;;;0.43;0.20;;;15.90;99.90;;;;;;2602614;54;20125;31
2023/04/15 10:04:31;;;;;;;0.63;0.20;;;16.30;99.90;;;;;;2603175;54;19981;31
2023/04/15 10:07:08;;;;;;;6.13;0.88;;;16.60;99.90;;;;;;2617420;46;20029;31
2023/04/15 10:09:44;;;;;;;1.05;0.30;;;16.40;99.90;;;;;;2603290;54;20109;31
2023/04/15 10:12:22;;;;;;;0.30;0.20;;;16.00;99.90;;;;;;2602278;54;20116;31
2023/04/15 10:15:00;;;;;;;1.15;0.30;;;15.70;99.90;;;;;;2602680;54;20030;31
2023/04/15 10:17:36;;;;;;;1.80;0.37;;;15.80;99.90;;;;;;2603251;54;20027;31
2023/04/15 10:20:14;;;;;;;0.40;0.20;;;16.10;99.90;;;;;;2603402;54;19939;31
2023/04/15 10:22:50;;;;;;;0.57;0.30;;;16.10;99.90;;;;;;2603451;54;20030;31
2023/04/15 10:25:25;;;;;;;0.57;0.20;;;16.00;99.90;;;;;;2603210;54;20042;31
2023/04/15 10:28:07;;;;;;;0.65;0.20;;;16.00;99.90;;;;;;2603047;54;20882;31
2023/04/15 10:30:50;;;;;;;1.02;0.30;;;15.80;99.90;;;;;;2603119;54;20097;31
2023/04/15 10:33:28;;;;;;;0.57;0.23;;;15.70;99.90;;;;;;2603130;54;20038;31
2023/04/15 10:36:13;;;;;;;9.15;3.88;;;15.60;99.90;;;;;;2621257;46;22335;31
2023/04/15 10:38:53;;;;;;;1.00;0.30;;;15.70;99.90;;;;;;2602934;54;20023;31
2023/04/15 10:41:30;;;;;;;2.42;0.40;;;15.80;99.90;;;;;;2603260;54;20030;31
2023/04/15 10:44:11;;;;;;;0.55;0.30;;;15.80;99.90;;;;;;2603178;54;20848;31
2023/04/15 10:46:48;;;;;;;0.45;0.20;;;16.00;99.90;;;;;;2603072;54;20854;31
2023/04/15 10:49:27;;;;;;;0.73;0.20;;;16.00;99.90;;;;;;2621508;46;20029;31
2023/04/15 10:52:06;;;;;;;0.52;0.30;;;15.90;99.90;;;;;;2603203;54;20082;31
2023/04/15 10:54:51;;;;;;;0.70;0.30;;;15.50;99.90;;;;;;2701166;39;21443;31
2023/04/15 10:57:29;;;;;;;1.58;0.20;;;15.40;99.90;;;;;;2602163;54;20247;31
2023/04/15 11:00:14;;;;;;;0.20;0.10;;;15.30;99.90;;;;;;2602938;54;20789;31
2023/04/15 11:02:51;;;;;;;1.55;0.98;;;15.20;99.90;;;;;;2602936;54;20829;31
2023/04/15 11:06:00;;;;;;;0.20;0.10;;;15.10;99.90;;;;;;2603091;54;20019;31
2023/04/15 11:08:58;;;;;;;0.60;0.20;;;15.00;99.90;;;;;;2603202;54;20025;31
2023/04/15 11:11:52;;;;;;;0.35;0.20;;;14.90;99.90;;;;;;2603059;54;20090;31
2023/04/15 11:14:32;;;;;;;0.47;0.13;;;14.90;99.90;;;;;;2602842;54;20901;31
2023/04/15 11:17:10;;;;;;;0.40;0.25;;;14.90;99.90;;;;;;2602973;54;20037;31
2023/04/15 11:19:53;;;;;;;1.95;0.30;;;14.90;99.90;;;;;;2701286;39;21443;31
2023/04/15 11:22:37;;;;;;;0.40;0.20;;;15.00;99.90;;;;;;2603207;54;20026;31
2023/04/15 11:25:14;;;;;;;0.90;0.50;;;15.10;99.90;;;;;;2603109;54;20596;31
2023/04/15 11:27:53;;;;;;;0.95;0.30;;;15.10;99.90;;;;;;2621644;47;20033;31
2023/04/15 11:30:28;;;;;;;0.75;0.25;;;15.20;99.90;;;;;;2602952;54;20921;31
2023/04/15 11:35:57;;;;;;;3.53;1.20;;;15.60;99.90;;;;;;2603023;54;19993;31
2023/04/15 11:38:36;;;;;;;0.60;0.30;;;15.90;99.90;;;;;;2602885;54;20097;31
2023/04/15 11:41:13;;;;;;;0.40;0.20;;;16.00;99.90;;;;;;2602233;54;20841;31
2023/04/15 11:43:49;;;;;;;1.40;0.55;;;16.00;99.90;;;;;;2602678;54;20081;31
2023/04/15 11:46:30;;;;;;;0.65;0.30;;;15.90;99.90;;;;;;2621479;47;20035;31
2023/04/15 11:49:12;;;;;;;0.50;0.20;;;15.80;99.90;;;;;;2602872;54;20057;31
2023/04/15 11:51:47;;;;;;;0.52;0.30;;;15.80;99.90;;;;;;2621006;47;20073;31
2023/04/15 11:54:24;;;;;;;0.65;0.20;;;15.70;99.90;;;;;;2621017;47;20656;31
2023/04/15 11:57:04;;;;;;;0.82;0.30;;;15.60;99.90;;;;;;2603151;54;20813;31
2023/04/15 11:59:45;;;;;;;1.07;0.33;;;15.60;99.90;;;;;;2621159;47;20026;31
2023/04/15 12:02:22;;;;;;;1.70;0.40;;;15.50;99.90;;;;;;2603530;54;20057;31
2023/04/15 12:05:08;;;;;;;0.82;0.40;;;15.30;99.90;;;;;;2603674;54;20102;31
2023/04/15 12:08:02;;;;;;;0.47;0.20;;;15.30;99.90;;;;;;2603691;54;20032;31
2023/04/15 12:10:40;;;;;;;0.50;0.20;;;15.20;99.90;;;;;;2603693;54;20033;31
2023/04/15 12:13:17;;;;;;;0.70;0.30;;;15.10;99.90;;;;;;2603694;54;20030;31
2023/04/15 12:15:53;;;;;;;1.20;0.60;;;15.10;99.90;;;;;;2621843;46;20943;31
2023/04/15 12:18:30;;;;;;;1.00;0.30;;;15.10;99.90;;;;;;2622049;46;20033;31
2023/04/15 12:21:07;;;;;;;0.40;0.20;;;15.00;99.90;;;;;;2622168;46;20022;31
2023/04/15 12:23:50;;;;;;;1.20;0.40;;;15.10;99.90;;;;;;2622089;46;20076;31
2023/04/15 12:26:29;;;;;;;2.67;0.40;;;15.00;99.90;;;;;;2603834;54;20275;31
2023/04/15 12:29:05;;;;;;;1.15;0.20;;;15.00;99.90;;;;;;2603642;54;20897;31
2023/04/15 12:31:42;;;;;;;;;;;15.10;99.90;;;;;;2617986;46;20778;31
2023/04/15 12:34:18;;;;;;;1.48;0.20;;;15.00;99.90;;;;;;2603442;54;19986;31
2023/04/15 12:36:55;;;;;;;0.43;0.20;;;15.10;99.90;;;;;;2621867;46;20078;31
2023/04/15 12:39:34;;;;;;;0.45;0.30;;;15.20;99.90;;;;;;2603533;54;20085;31
2023/04/15 12:42:15;;;;;;;1.77;0.40;;;15.20;99.90;;;;;;2603286;54;20646;31
2023/04/15 12:44:52;;;;;;;0.50;0.30;;;15.30;99.90;;;;;;2603585;54;20037;31
2023/04/15 12:47:29;;;;;;;1.83;0.30;;;15.30;99.90;;;;;;2603628;54;21637;31
2023/04/15 12:50:04;;;;;;;0.50;0.30;;;15.40;99.90;;;;;;2603398;54;20033;31
2023/04/15 12:52:40;;;;;;;0.20;0.10;;;15.50;99.90;;;;;;2603550;54;20034;31
2023/04/15 12:55:22;;;;;;;0.90;0.30;;;15.50;99.90;;;;;;2603493;54;20847;31
2023/04/15 12:58:01;;;;;;;0.77;0.40;;;15.60;99.90;;;;;;2702169;39;21706;31
2023/04/15 13:03:13;;;;;;;0.70;0.30;;;15.50;99.90;;;;;;2621453;46;20031;31
2023/04/15 13:05:51;;;;;;;0.60;0.50;;;15.50;99.90;;;;;;2603388;54;20543;31
2023/04/15 13:08:28;;;;;;;0.28;0.20;;;15.50;99.90;;;;;;2603770;54;20030;31
2023/04/15 13:11:07;;;;;;;0.63;0.28;;;15.50;99.90;;;;;;2616662;46;20049;31
2023/04/15 13:13:51;;;;;;;0.60;0.25;;;15.40;99.90;;;;;;2621553;46;20736;31
2023/04/15 13:16:28;;;;;;;;;;;15.40;99.90;;;;;;2603686;54;20826;31
2023/04/15 13:19:07;;;;;;;1.20;0.30;;;15.40;99.90;;;;;;2616158;46;20752;31
2023/04/15 13:21:43;;;;;;;0.60;0.30;;;15.30;99.90;;;;;;2602806;54;20040;31
2023/04/15 13:24:19;;;;;;;0.93;0.20;;;15.30;99.90;;;;;;2621742;46;20057;31
2023/04/15 13:26:58;;;;;;;;;;;15.30;99.90;;;;;;2603641;54;20022;31
2023/04/15 13:29:37;;;;;;;0.45;0.30;;;15.30;99.90;;;;;;2603449;54;19961;31
2023/04/15 13:32:15;;;;;;;1.67;0.40;;;15.20;99.90;;;;;;2603599;54;20133;31
2023/04/15 13:34:51;;;;;;;0.60;0.30;;;15.20;99.90;;;;;;2603193;54;20027;31
2023/04/15 13:37:28;;;;;;;;;;;15.30;99.90;;;;;;2603706;54;20053;31
2023/04/15 13:40:06;;;;;;;1.40;0.60;;;15.30;99.90;;;;;;2603231;54;20006;31
2023/04/15 13:42:43;;;;;;;0.65;0.40;;;15.30;99.90;;;;;;2603383;54;20835;31
2023/04/15 13:45:25;;;;;;;0.43;0.30;;;15.40;99.90;;;;;;2603523;54;20056;31
2023/04/15 13:48:05;;;;;;;0.45;0.28;;;15.50;99.90;;;;;;2603345;54;21023;31
2023/04/15 13:50:44;;;;;;;0.93;0.35;;;15.60;99.90;;;;;;2603198;54;20031;31
2023/04/15 13:53:23;;;;;;;1.20;0.50;;;15.60;99.90;;;;;;2603106;54;20085;31
2023/04/15 13:56:13;;;;;;;0.80;0.30;;;15.70;99.90;;;;;;2603347;54;20261;31
2023/04/15 13:58:48;;;;;;;0.80;0.40;;;15.70;99.90;;;;;;2603133;54;20027;31
2023/04/15 14:01:28;;;;;;;;;;;15.60;99.90;;;;;;2621886;46;20030;31